sensor_id;sensor_type;location;lat;lon;timestamp;pressure;altitude;pressure_sealevel;temperature;humidity
29825;BME280;16713;52.916;12.834;2023-11-19T00:01:33;100828.44;;;6.52;70.67
29825;BME280;16713;52.916;12.834;2023-11-19T00:04:00;100822.19;;;6.51;70.60
29825;BME280;16713;52.916;12.834;2023-11-19T00:06:27;100813.34;;;6.54;70.72
29825;BME280;16713;52.916;12.834;2023-11-19T00:08:54;100809.22;;;6.48;70.48
29825;BME280;16713;52.916;12.834;2023-11-19T00:11:21;100806.31;;;6.53;70.49
29825;BME280;16713;52.916;12.834;2023-11-19T00:13:47;100796.72;;;6.47;71.12
29825;BME280;16713;52.916;12.834;2023-11-19T00:16:14;100795.41;;;6.53;71.10
29825;BME280;16713;52.916;12.834;2023-11-19T00:18:43;100795.41;;;6.53;70.69
29825;BME280;16713;52.916;12.834;2023-11-19T00:21:09;100789.97;;;6.53;70.40
29825;BME280;16713;52.916;12.834;2023-11-19T00:23:37;100798.63;;;6.55;70.53
29825;BME280;16713;52.916;12.834;2023-11-19T00:26:04;100783.72;;;6.53;70.70
29825;BME280;16713;52.916;12.834;2023-11-19T00:28:33;100772.69;;;6.49;70.56
29825;BME280;16713;52.916;12.834;2023-11-19T00:31:00;100764.63;;;6.53;71.24
29825;BME280;16713;52.916;12.834;2023-11-19T00:33:26;100766.25;;;6.54;70.19
29825;BME280;16713;52.916;12.834;2023-11-19T00:35:53;100755.53;;;6.49;70.83
29825;BME280;16713;52.916;12.834;2023-11-19T00:38:20;100740.75;;;6.58;71.13
29825;BME280;16713;52.916;12.834;2023-11-19T00:40:46;100729.84;;;6.58;70.60
29825;BME280;16713;52.916;12.834;2023-11-19T00:43:13;100715.91;;;6.51;70.59
29825;BME280;16713;52.916;12.834;2023-11-19T00:45:39;100713.69;;;6.53;70.56
29825;BME280;16713;52.916;12.834;2023-11-19T00:48:06;100709.81;;;6.54;70.61
29825;BME280;16713;52.916;12.834;2023-11-19T00:50:33;100704.38;;;6.54;70.91
29825;BME280;16713;52.916;12.834;2023-11-19T00:53:03;100691.22;;;6.56;71.28
29825;BME280;16713;52.916;12.834;2023-11-19T00:55:30;100685.63;;;6.53;70.51
29825;BME280;16713;52.916;12.834;2023-11-19T00:57:57;100685.63;;;6.53;70.84
29825;BME280;16713;52.916;12.834;2023-11-19T01:00:24;100678.59;;;6.52;70.10
29825;BME280;16713;52.916;12.834;2023-11-19T01:02:53;100671.66;;;6.54;70.46
29825;BME280;16713;52.916;12.834;2023-11-19T01:05:20;100665.91;;;6.56;71.26
29825;BME280;16713;52.916;12.834;2023-11-19T01:07:49;100656.59;;;6.57;71.14
29825;BME280;16713;52.916;12.834;2023-11-19T01:10:16;100647.16;;;6.54;70.61
29825;BME280;16713;52.916;12.834;2023-11-19T01:12:43;100644.13;;;6.56;70.58
29825;BME280;16713;52.916;12.834;2023-11-19T01:15:09;100649.25;;;6.57;70.50
29825;BME280;16713;52.916;12.834;2023-11-19T01:17:37;100640.59;;;6.55;70.78
29825;BME280;16713;52.916;12.834;2023-11-19T01:20:04;100629.84;;;6.59;70.39
29825;BME280;16713;52.916;12.834;2023-11-19T01:22:33;100625.16;;;6.59;71.04
29825;BME280;16713;52.916;12.834;2023-11-19T01:24:59;100615.41;;;6.58;71.31
29825;BME280;16713;52.916;12.834;2023-11-19T01:27:26;100617.66;;;6.56;71.50
29825;BME280;16713;52.916;12.834;2023-11-19T01:29:53;100609.66;;;6.51;70.67
29825;BME280;16713;52.916;12.834;2023-11-19T01:32:19;100612.22;;;6.56;70.95
29825;BME280;16713;52.916;12.834;2023-11-19T01:34:46;100605.66;;;6.57;71.07
29825;BME280;16713;52.916;12.834;2023-11-19T01:37:12;100597.47;;;6.57;71.00
29825;BME280;16713;52.916;12.834;2023-11-19T01:39:43;100593.78;;;6.53;71.16
29825;BME280;16713;52.916;12.834;2023-11-19T01:42:10;100586.09;;;6.55;71.70
29825;BME280;16713;52.916;12.834;2023-11-19T01:44:38;100572.81;;;6.54;71.51
29825;BME280;16713;52.916;12.834;2023-11-19T01:47:06;100561.25;;;6.57;71.87
29825;BME280;16713;52.916;12.834;2023-11-19T01:49:32;100554.31;;;6.59;71.37
29825;BME280;16713;52.916;12.834;2023-11-19T01:51:59;100554.31;;;6.59;71.19
29825;BME280;16713;52.916;12.834;2023-11-19T01:54:28;100547.28;;;6.58;71.49
29825;BME280;16713;52.916;12.834;2023-11-19T01:56:56;100535.16;;;6.56;70.66
29825;BME280;16713;52.916;12.834;2023-11-19T01:59:23;100525.16;;;6.60;71.76
29825;BME280;16713;52.916;12.834;2023-11-19T02:01:54;100512.53;;;6.55;71.72
29825;BME280;16713;52.916;12.834;2023-11-19T02:04:24;100503.84;;;6.62;71.84
29825;BME280;16713;52.916;12.834;2023-11-19T02:06:54;100484.44;;;6.63;71.25
29825;BME280;16713;52.916;12.834;2023-11-19T02:09:22;100479.66;;;6.60;71.35
29825;BME280;16713;52.916;12.834;2023-11-19T02:11:49;100471.28;;;6.65;71.38
29825;BME280;16713;52.916;12.834;2023-11-19T02:14:17;100472.84;;;6.66;71.81
29825;BME280;16713;52.916;12.834;2023-11-19T02:16:44;100461.16;;;6.66;71.47
29825;BME280;16713;52.916;12.834;2023-11-19T02:19:11;100462.63;;;6.63;72.32
29825;BME280;16713;52.916;12.834;2023-11-19T02:21:37;100459.22;;;6.66;71.45
29825;BME280;16713;52.916;12.834;2023-11-19T02:24:06;100449.47;;;6.65;71.69
29825;BME280;16713;52.916;12.834;2023-11-19T02:29:11;100447.84;;;6.64;71.33
29825;BME280;16713;52.916;12.834;2023-11-19T02:31:38;100444.56;;;6.59;72.07
29825;BME280;16713;52.916;12.834;2023-11-19T02:34:04;100435.13;;;6.56;72.08
29825;BME280;16713;52.916;12.834;2023-11-19T02:36:32;100429.66;;;6.56;71.94
29825;BME280;16713;52.916;12.834;2023-11-19T02:38:59;100424.69;;;6.58;71.78
29825;BME280;16713;52.916;12.834;2023-11-19T02:41:26;100424.06;;;6.53;72.49
29825;BME280;16713;52.916;12.834;2023-11-19T02:43:52;100415.13;;;6.52;72.51
29825;BME280;16713;52.916;12.834;2023-11-19T02:46:19;100415.13;;;6.52;72.13
29825;BME280;16713;52.916;12.834;2023-11-19T02:48:46;100399.13;;;6.51;72.63
29825;BME280;16713;52.916;12.834;2023-11-19T02:51:13;100378.22;;;6.55;72.99
29825;BME280;16713;52.916;12.834;2023-11-19T02:53:39;100371.97;;;6.54;72.83
29825;BME280;16713;52.916;12.834;2023-11-19T02:56:07;100379.84;;;6.56;72.42
29825;BME280;16713;52.916;12.834;2023-11-19T02:58:52;100364.63;;;6.55;72.69
29825;BME280;16713;52.916;12.834;2023-11-19T03:01:24;100351.47;;;6.57;72.95
29825;BME280;16713;52.916;12.834;2023-11-19T03:03:57;100350.31;;;6.58;73.27
29825;BME280;16713;52.916;12.834;2023-11-19T03:06:25;100351.47;;;6.57;73.17
29825;BME280;16713;52.916;12.834;2023-11-19T03:08:51;100349.63;;;6.61;73.14
29825;BME280;16713;52.916;12.834;2023-11-19T03:11:18;100360.66;;;6.64;72.37
29825;BME280;16713;52.916;12.834;2023-11-19T03:13:45;100352.63;;;6.68;72.57
29825;BME280;16713;52.916;12.834;2023-11-19T03:16:13;100331.63;;;6.68;73.10
29825;BME280;16713;52.916;12.834;2023-11-19T03:18:40;100312.22;;;6.70;71.54
29825;BME280;16713;52.916;12.834;2023-11-19T03:21:06;100312.22;;;6.70;73.03
29825;BME280;16713;52.916;12.834;2023-11-19T03:23:35;100305.28;;;6.72;72.79
29825;BME280;16713;52.916;12.834;2023-11-19T03:26:01;100299.69;;;6.69;72.02
29825;BME280;16713;52.916;12.834;2023-11-19T03:28:32;100290.06;;;6.71;72.52
29825;BME280;16713;52.916;12.834;2023-11-19T03:30:59;100279.16;;;6.71;71.94
29825;BME280;16713;52.916;12.834;2023-11-19T03:33:26;100280.41;;;6.74;72.91
29825;BME280;16713;52.916;12.834;2023-11-19T03:35:56;100266.00;;;6.73;72.70
29825;BME280;16713;52.916;12.834;2023-11-19T03:38:23;100258.25;;;6.75;72.87
29825;BME280;16713;52.916;12.834;2023-11-19T03:40:51;100250.31;;;6.70;72.20
29825;BME280;16713;52.916;12.834;2023-11-19T03:43:18;100248.84;;;6.73;71.96
29825;BME280;16713;52.916;12.834;2023-11-19T03:45:45;100259.88;;;6.76;72.08
29825;BME280;16713;52.916;12.834;2023-11-19T03:48:13;100255.75;;;6.70;72.63
29825;BME280;16713;52.916;12.834;2023-11-19T03:50:42;100248.97;;;6.76;71.80
29825;BME280;16713;52.916;12.834;2023-11-19T03:53:09;100239.53;;;6.74;72.84
29825;BME280;16713;52.916;12.834;2023-11-19T03:55:36;100227.06;;;6.73;72.73
29825;BME280;16713;52.916;12.834;2023-11-19T03:58:02;100225.13;;;6.73;72.73
29825;BME280;16713;52.916;12.834;2023-11-19T04:00:29;100228.50;;;6.70;72.80
29825;BME280;16713;52.916;12.834;2023-11-19T04:02:55;100224.31;;;6.73;73.14
29825;BME280;16713;52.916;12.834;2023-11-19T04:05:22;100205.59;;;6.71;72.47
29825;BME280;16713;52.916;12.834;2023-11-19T04:07:49;100196.63;;;6.71;73.26
29825;BME280;16713;52.916;12.834;2023-11-19T04:10:15;100183.44;;;6.73;73.35
29825;BME280;16713;52.916;12.834;2023-11-19T04:12:43;100173.34;;;6.73;72.87
29825;BME280;16713;52.916;12.834;2023-11-19T04:15:11;100164.72;;;6.71;72.78
29825;BME280;16713;52.916;12.834;2023-11-19T04:17:38;100169.03;;;6.72;72.62
29825;BME280;16713;52.916;12.834;2023-11-19T04:20:05;100150.88;;;6.76;73.09
29825;BME280;16713;52.916;12.834;2023-11-19T04:22:32;100153.81;;;6.71;73.35
29825;BME280;16713;52.916;12.834;2023-11-19T04:24:59;100141.31;;;6.70;72.93
29825;BME280;16713;52.916;12.834;2023-11-19T04:27:25;100146.75;;;6.70;72.75
29825;BME280;16713;52.916;12.834;2023-11-19T04:29:52;100140.66;;;6.73;73.01
29825;BME280;16713;52.916;12.834;2023-11-19T04:32:19;100150.28;;;6.71;73.21
29825;BME280;16713;52.916;12.834;2023-11-19T04:34:47;100149.16;;;6.72;73.35
29825;BME280;16713;52.916;12.834;2023-11-19T04:37:13;100144.84;;;6.71;73.76
29825;BME280;16713;52.916;12.834;2023-11-19T04:39:40;100146.09;;;6.73;73.20
29825;BME280;16713;52.916;12.834;2023-11-19T04:42:07;100133.59;;;6.72;73.84
29825;BME280;16713;52.916;12.834;2023-11-19T04:44:33;100130.19;;;6.75;73.56
29825;BME280;16713;52.916;12.834;2023-11-19T04:47:00;100119.97;;;6.72;73.88
29825;BME280;16713;52.916;12.834;2023-11-19T04:49:27;100125.88;;;6.74;73.76
29825;BME280;16713;52.916;12.834;2023-11-19T04:51:54;100113.47;;;6.77;74.20
29825;BME280;16713;52.916;12.834;2023-11-19T04:54:21;100111.09;;;6.75;73.77
29825;BME280;16713;52.916;12.834;2023-11-19T04:56:47;100108.84;;;6.77;74.16
29825;BME280;16713;52.916;12.834;2023-11-19T04:59:15;100104.19;;;6.78;73.78
29825;BME280;16713;52.916;12.834;2023-11-19T05:01:46;100094.06;;;6.78;73.29
29825;BME280;16713;52.916;12.834;2023-11-19T05:04:13;100083.97;;;6.79;73.31
29825;BME280;16713;52.916;12.834;2023-11-19T05:06:40;100076.13;;;6.77;73.85
29825;BME280;16713;52.916;12.834;2023-11-19T05:09:06;100066.81;;;6.78;74.05
29825;BME280;16713;52.916;12.834;2023-11-19T05:11:36;100069.88;;;6.77;74.00
29825;BME280;16713;52.916;12.834;2023-11-19T05:14:16;100076.13;;;6.77;73.29
29825;BME280;16713;52.916;12.834;2023-11-19T05:16:42;100073.75;;;6.76;74.26
29825;BME280;16713;52.916;12.834;2023-11-19T05:19:09;100071.84;;;6.76;74.06
29825;BME280;16713;52.916;12.834;2023-11-19T05:21:36;100068.75;;;6.78;74.50
29825;BME280;16713;52.916;12.834;2023-11-19T05:24:03;100068.75;;;6.78;73.75
29825;BME280;16713;52.916;12.834;2023-11-19T05:26:32;100064.09;;;6.78;73.25
29825;BME280;16713;52.916;12.834;2023-11-19T05:28:59;100043.09;;;6.79;74.33
29825;BME280;16713;52.916;12.834;2023-11-19T05:31:25;100053.63;;;6.80;74.54
29825;BME280;16713;52.916;12.834;2023-11-19T05:33:52;100041.63;;;6.81;74.87
29825;BME280;16713;52.916;12.834;2023-11-19T05:36:18;100028.75;;;6.82;74.37
29825;BME280;16713;52.916;12.834;2023-11-19T05:38:45;100028.75;;;6.82;74.51
29825;BME280;16713;52.916;12.834;2023-11-19T05:41:11;100014.38;;;6.81;74.66
29825;BME280;16713;52.916;12.834;2023-11-19T05:43:38;100020.16;;;6.80;74.06
29825;BME280;16713;52.916;12.834;2023-11-19T05:46:07;100013.22;;;6.82;75.32
29825;BME280;16713;52.916;12.834;2023-11-19T05:48:45;100012.06;;;6.83;74.55
29825;BME280;16713;52.916;12.834;2023-11-19T05:51:13;99980.63;;;6.86;75.01
29825;BME280;16713;52.916;12.834;2023-11-19T05:53:41;99987.19;;;6.85;73.96
29825;BME280;16713;52.916;12.834;2023-11-19T05:56:08;99978.25;;;6.84;74.25
29825;BME280;16713;52.916;12.834;2023-11-19T05:58:36;99980.63;;;6.86;74.75
29825;BME280;16713;52.916;12.834;2023-11-19T06:01:04;99978.66;;;6.86;73.80
29825;BME280;16713;52.916;12.834;2023-11-19T06:03:31;99971.63;;;6.85;74.28
29825;BME280;16713;52.916;12.834;2023-11-19T06:05:58;99966.53;;;6.84;74.84
29825;BME280;16713;52.916;12.834;2023-11-19T06:08:24;99979.28;;;6.80;75.22
29825;BME280;16713;52.916;12.834;2023-11-19T06:10:53;99974.59;;;6.80;75.06
29825;BME280;16713;52.916;12.834;2023-11-19T06:13:19;99966.44;;;6.80;74.62
29825;BME280;16713;52.916;12.834;2023-11-19T06:15:50;99955.53;;;6.80;74.80
29825;BME280;16713;52.916;12.834;2023-11-19T06:18:17;99936.34;;;6.77;75.66
29825;BME280;16713;52.916;12.834;2023-11-19T06:20:47;99940.69;;;6.78;75.14
29825;BME280;16713;52.916;12.834;2023-11-19T06:23:13;99941.91;;;6.80;75.60
29825;BME280;16713;52.916;12.834;2023-11-19T06:25:40;99945.31;;;6.77;75.37
29825;BME280;16713;52.916;12.834;2023-11-19T06:28:06;99951.69;;;6.81;75.41
29825;BME280;16713;52.916;12.834;2023-11-19T06:30:33;99941.19;;;6.83;75.49
29825;BME280;16713;52.916;12.834;2023-11-19T06:32:59;99944.72;;;6.84;75.43
29825;BME280;16713;52.916;12.834;2023-11-19T06:35:27;99942.47;;;6.86;75.24
29825;BME280;16713;52.916;12.834;2023-11-19T06:37:56;99931.66;;;6.89;75.55
29825;BME280;16713;52.916;12.834;2023-11-19T06:40:22;99932.00;;;6.88;75.13
29825;BME280;16713;52.916;12.834;2023-11-19T06:42:49;99929.81;;;6.93;75.37
29825;BME280;16713;52.916;12.834;2023-11-19T06:45:16;99924.81;;;6.95;75.95
29825;BME280;16713;52.916;12.834;2023-11-19T06:47:43;99919.00;;;6.97;76.01
29825;BME280;16713;52.916;12.834;2023-11-19T06:50:09;99919.44;;;6.99;75.12
29825;BME280;16713;52.916;12.834;2023-11-19T06:52:38;99922.94;;;6.99;76.01
29825;BME280;16713;52.916;12.834;2023-11-19T06:55:05;99916.03;;;7.02;75.66
29825;BME280;16713;52.916;12.834;2023-11-19T06:57:34;99921.13;;;7.03;75.80
29825;BME280;16713;52.916;12.834;2023-11-19T07:00:00;99930.53;;;7.06;75.06
29825;BME280;16713;52.916;12.834;2023-11-19T07:02:27;99942.22;;;7.06;76.41
29825;BME280;16713;52.916;12.834;2023-11-19T07:04:54;99945.81;;;7.10;76.16
29825;BME280;16713;52.916;12.834;2023-11-19T07:07:21;99933.00;;;7.11;76.25
29825;BME280;16713;52.916;12.834;2023-11-19T07:09:47;99929.16;;;7.12;75.52
29825;BME280;16713;52.916;12.834;2023-11-19T07:12:14;99929.91;;;7.12;75.62
29825;BME280;16713;52.916;12.834;2023-11-19T07:14:41;99927.28;;;7.16;75.72
29825;BME280;16713;52.916;12.834;2023-11-19T07:17:08;99919.47;;;7.14;75.92
29825;BME280;16713;52.916;12.834;2023-11-19T07:19:36;99921.47;;;7.17;76.50
29825;BME280;16713;52.916;12.834;2023-11-19T07:22:04;99920.31;;;7.18;76.11
29825;BME280;16713;52.916;12.834;2023-11-19T07:24:32;99918.41;;;7.19;76.24
29825;BME280;16713;52.916;12.834;2023-11-19T07:26:59;99916.13;;;7.21;76.18
29825;BME280;16713;52.916;12.834;2023-11-19T07:29:25;99926.69;;;7.22;76.72
29825;BME280;16713;52.916;12.834;2023-11-19T07:31:55;99921.66;;;7.24;76.07
29825;BME280;16713;52.916;12.834;2023-11-19T07:34:24;99925.97;;;7.25;76.21
29825;BME280;16713;52.916;12.834;2023-11-19T07:36:51;99923.69;;;7.27;76.67
29825;BME280;16713;52.916;12.834;2023-11-19T07:39:19;99929.94;;;7.28;76.00
29825;BME280;16713;52.916;12.834;2023-11-19T07:41:47;99924.50;;;7.28;76.88
29825;BME280;16713;52.916;12.834;2023-11-19T07:44:13;99927.28;;;7.31;76.87
29825;BME280;16713;52.916;12.834;2023-11-19T07:46:40;99925.34;;;7.32;76.53
29825;BME280;16713;52.916;12.834;2023-11-19T07:49:08;99927.72;;;7.33;77.31
29825;BME280;16713;52.916;12.834;2023-11-19T07:51:36;99931.25;;;7.34;76.97
29825;BME280;16713;52.916;12.834;2023-11-19T07:54:03;99927.03;;;7.36;77.21
29825;BME280;16713;52.916;12.834;2023-11-19T07:56:31;99929.41;;;7.38;77.10
29825;BME280;16713;52.916;12.834;2023-11-19T07:58:57;99913.03;;;7.38;76.94
29825;BME280;16713;52.916;12.834;2023-11-19T08:01:24;99916.56;;;7.38;77.69
29825;BME280;16713;52.916;12.834;2023-11-19T08:03:51;99918.13;;;7.39;76.56
29825;BME280;16713;52.916;12.834;2023-11-19T08:06:20;99913.56;;;7.43;77.62
29825;BME280;16713;52.916;12.834;2023-11-19T08:08:47;99896.06;;;7.44;76.42
29825;BME280;16713;52.916;12.834;2023-11-19T08:11:14;99880.13;;;7.46;77.04
29825;BME280;16713;52.916;12.834;2023-11-19T08:13:41;99883.72;;;7.50;77.40
29825;BME280;16713;52.916;12.834;2023-11-19T08:16:08;99881.78;;;7.51;76.87
29825;BME280;16713;52.916;12.834;2023-11-19T08:18:36;99871.31;;;7.53;77.14
29825;BME280;16713;52.916;12.834;2023-11-19T08:21:03;99876.06;;;7.56;78.04
29825;BME280;16713;52.916;12.834;2023-11-19T08:23:31;99880.38;;;7.57;78.09
29825;BME280;16713;52.916;12.834;2023-11-19T08:25:58;99876.94;;;7.60;77.61
29825;BME280;16713;52.916;12.834;2023-11-19T08:28:25;99878.88;;;7.59;77.45
29825;BME280;16713;52.916;12.834;2023-11-19T08:30:51;99874.72;;;7.65;78.23
29825;BME280;16713;52.916;12.834;2023-11-19T08:33:18;99871.19;;;7.65;77.93
29825;BME280;16713;52.916;12.834;2023-11-19T08:35:45;99860.00;;;7.70;77.92
29825;BME280;16713;52.916;12.834;2023-11-19T08:38:13;99874.91;;;7.72;78.09
29825;BME280;16713;52.916;12.834;2023-11-19T08:40:40;99872.16;;;7.72;77.81
29825;BME280;16713;52.916;12.834;2023-11-19T08:43:06;99869.94;;;7.78;76.96
29825;BME280;16713;52.916;12.834;2023-11-19T08:45:33;99865.72;;;7.81;77.38
29825;BME280;16713;52.916;12.834;2023-11-19T08:48:00;99857.28;;;7.86;77.08
29825;BME280;16713;52.916;12.834;2023-11-19T08:50:26;99858.84;;;7.87;77.07
29825;BME280;16713;52.916;12.834;2023-11-19T08:52:53;99863.59;;;7.90;78.38
29825;BME280;16713;52.916;12.834;2023-11-19T08:55:19;99869.50;;;7.92;77.46
29825;BME280;16713;52.916;12.834;2023-11-19T08:57:46;99864.91;;;7.96;79.01
29825;BME280;16713;52.916;12.834;2023-11-19T09:00:13;99867.63;;;7.96;78.27
29825;BME280;16713;52.916;12.834;2023-11-19T09:02:40;99863.41;;;7.98;77.49
29825;BME280;16713;52.916;12.834;2023-11-19T09:05:08;99855.22;;;7.98;78.27
29825;BME280;16713;52.916;12.834;2023-11-19T09:07:35;99850.19;;;8.00;78.65
29825;BME280;16713;52.916;12.834;2023-11-19T09:10:01;99848.31;;;8.04;78.40
29825;BME280;16713;52.916;12.834;2023-11-19T09:12:28;99850.31;;;8.07;78.26
29825;BME280;16713;52.916;12.834;2023-11-19T09:14:54;99853.13;;;8.11;78.94
29825;BME280;16713;52.916;12.834;2023-11-19T09:17:21;99855.16;;;8.14;80.17
29825;BME280;16713;52.916;12.834;2023-11-19T09:19:48;99855.31;;;8.21;79.79
29825;BME280;16713;52.916;12.834;2023-11-19T09:22:14;99861.97;;;8.23;80.13
29825;BME280;16713;52.916;12.834;2023-11-19T09:24:41;99860.47;;;8.26;78.94
29825;BME280;16713;52.916;12.834;2023-11-19T09:27:08;99858.16;;;8.28;80.84
29825;BME280;16713;52.916;12.834;2023-11-19T09:29:35;99855.50;;;8.31;80.25
29825;BME280;16713;52.916;12.834;2023-11-19T09:32:01;99848.53;;;8.34;80.06
29825;BME280;16713;52.916;12.834;2023-11-19T09:34:31;99848.22;;;8.39;81.09
29825;BME280;16713;52.916;12.834;2023-11-19T09:36:58;99837.38;;;8.42;81.81
29825;BME280;16713;52.916;12.834;2023-11-19T09:39:24;99829.25;;;8.46;80.84
29825;BME280;16713;52.916;12.834;2023-11-19T09:41:52;99829.69;;;8.48;80.79
29825;BME280;16713;52.916;12.834;2023-11-19T09:44:18;99831.31;;;8.52;80.54
29825;BME280;16713;52.916;12.834;2023-11-19T09:46:46;99817.31;;;8.54;81.07
29825;BME280;16713;52.916;12.834;2023-11-19T09:49:14;99820.09;;;8.57;81.44
29825;BME280;16713;52.916;12.834;2023-11-19T09:51:42;99825.63;;;8.61;82.19
29825;BME280;16713;52.916;12.834;2023-11-19T09:54:09;99820.25;;;8.64;81.42
29825;BME280;16713;52.916;12.834;2023-11-19T09:56:37;99816.41;;;8.69;81.75
29825;BME280;16713;52.916;12.834;2023-11-19T09:59:05;99809.84;;;8.73;81.82
29825;BME280;16713;52.916;12.834;2023-11-19T10:01:31;99813.50;;;8.81;82.05
29825;BME280;16713;52.916;12.834;2023-11-19T10:03:58;99810.81;;;8.84;82.53
29825;BME280;16713;52.916;12.834;2023-11-19T10:06:25;99807.00;;;8.89;81.88
29825;BME280;16713;52.916;12.834;2023-11-19T10:08:53;99802.03;;;8.94;82.49
29825;BME280;16713;52.916;12.834;2023-11-19T10:11:20;99813.41;;;9.00;83.27
29825;BME280;16713;52.916;12.834;2023-11-19T10:13:46;99817.03;;;9.04;83.06
29825;BME280;16713;52.916;12.834;2023-11-19T10:16:15;99806.59;;;9.13;83.61
29825;BME280;16713;52.916;12.834;2023-11-19T10:18:46;99804.00;;;9.20;82.94
29825;BME280;16713;52.916;12.834;2023-11-19T10:21:13;99810.31;;;9.24;83.61
29825;BME280;16713;52.916;12.834;2023-11-19T10:23:54;99795.56;;;9.29;82.62
29825;BME280;16713;52.916;12.834;2023-11-19T10:26:23;99809.34;;;9.36;83.97
29825;BME280;16713;52.916;12.834;2023-11-19T10:28:50;99803.19;;;9.42;83.34
29825;BME280;16713;52.916;12.834;2023-11-19T10:31:17;99798.94;;;9.45;82.82
29825;BME280;16713;52.916;12.834;2023-11-19T10:33:45;99796.66;;;9.50;82.73
29825;BME280;16713;52.916;12.834;2023-11-19T10:36:12;99798.00;;;9.63;83.09
29825;BME280;16713;52.916;12.834;2023-11-19T10:38:39;99793.72;;;9.66;83.34
29825;BME280;16713;52.916;12.834;2023-11-19T10:41:07;99796.94;;;9.71;83.53
29825;BME280;16713;52.916;12.834;2023-11-19T10:43:43;99789.16;;;9.73;84.47
29825;BME280;16713;52.916;12.834;2023-11-19T10:46:14;99792.34;;;9.79;84.36
29825;BME280;16713;52.916;12.834;2023-11-19T10:48:41;99791.22;;;9.83;84.28
29825;BME280;16713;52.916;12.834;2023-11-19T10:51:07;99787.78;;;9.86;83.79
29825;BME280;16713;52.916;12.834;2023-11-19T10:53:38;99787.78;;;9.86;84.47
29825;BME280;16713;52.916;12.834;2023-11-19T10:56:08;99784.72;;;9.95;83.08
29825;BME280;16713;52.916;12.834;2023-11-19T10:58:37;99782.09;;;10.02;84.06
29825;BME280;16713;52.916;12.834;2023-11-19T11:01:19;99781.72;;;10.03;84.00
29825;BME280;16713;52.916;12.834;2023-11-19T11:03:51;99767.69;;;10.08;84.12
29825;BME280;16713;52.916;12.834;2023-11-19T11:06:19;99775.94;;;10.12;84.58
29825;BME280;16713;52.916;12.834;2023-11-19T11:08:48;99774.03;;;10.16;84.14
29825;BME280;16713;52.916;12.834;2023-11-19T11:11:15;99778.00;;;10.18;85.20
29825;BME280;16713;52.916;12.834;2023-11-19T11:13:47;99777.22;;;10.21;85.00
29825;BME280;16713;52.916;12.834;2023-11-19T11:16:19;99767.56;;;10.31;84.35
29825;BME280;16713;52.916;12.834;2023-11-19T11:18:47;99769.56;;;10.37;84.25
29825;BME280;16713;52.916;12.834;2023-11-19T11:21:21;99768.41;;;10.38;84.96
29825;BME280;16713;52.916;12.834;2023-11-19T11:29:24;99764.19;;;10.44;84.38
29825;BME280;16713;52.916;12.834;2023-11-19T11:35:01;99766.53;;;10.46;84.49
29825;BME280;16713;52.916;12.834;2023-11-19T11:37:36;99762.59;;;10.43;83.92
29825;BME280;16713;52.916;12.834;2023-11-19T11:40:04;99759.44;;;10.41;83.95
29825;BME280;16713;52.916;12.834;2023-11-19T11:42:37;99774.78;;;10.46;84.12
29825;BME280;16713;52.916;12.834;2023-11-19T11:45:08;99776.03;;;10.52;84.40
29825;BME280;16713;52.916;12.834;2023-11-19T11:50:15;99778.41;;;10.53;83.74
29825;BME280;16713;52.916;12.834;2023-11-19T11:57:55;99779.91;;;10.51;84.35
29825;BME280;16713;52.916;12.834;2023-11-19T12:00:43;99775.28;;;10.55;83.75
29825;BME280;16713;52.916;12.834;2023-11-19T12:03:11;99778.44;;;10.57;83.57
29825;BME280;16713;52.916;12.834;2023-11-19T12:05:42;99775.66;;;10.53;84.09
29825;BME280;16713;52.916;12.834;2023-11-19T12:08:14;99772.56;;;10.62;83.54
29825;BME280;16713;52.916;12.834;2023-11-19T12:10:50;99774.16;;;10.63;83.62
29825;BME280;16713;52.916;12.834;2023-11-19T12:13:19;99775.31;;;10.59;84.15
29825;BME280;16713;52.916;12.834;2023-11-19T12:20:56;99761.66;;;10.66;83.41
29825;BME280;16713;52.916;12.834;2023-11-19T12:23:23;99752.28;;;10.67;83.10
29825;BME280;16713;52.916;12.834;2023-11-19T12:25:50;99758.97;;;10.73;82.46
29825;BME280;16713;52.916;12.834;2023-11-19T12:28:17;99760.97;;;10.76;81.76
29825;BME280;16713;52.916;12.834;2023-11-19T12:30:44;99761.00;;;10.79;81.49
29825;BME280;16713;52.916;12.834;2023-11-19T12:33:12;99769.66;;;10.81;81.52
29825;BME280;16713;52.916;12.834;2023-11-19T12:35:45;99767.63;;;10.78;81.35
29825;BME280;16713;52.916;12.834;2023-11-19T12:38:25;99773.19;;;10.85;81.44
29825;BME280;16713;52.916;12.834;2023-11-19T12:41:05;99772.88;;;10.94;81.22
29825;BME280;16713;52.916;12.834;2023-11-19T12:43:32;99763.38;;;10.81;80.94
29825;BME280;16713;52.916;12.834;2023-11-19T12:46:20;99764.63;;;10.90;80.54
29825;BME280;16713;52.916;12.834;2023-11-19T12:48:48;99771.75;;;10.98;80.11
29825;BME280;16713;52.916;12.834;2023-11-19T12:51:15;99772.13;;;10.97;80.28
29825;BME280;16713;52.916;12.834;2023-11-19T12:53:50;99774.91;;;11.04;79.82
29825;BME280;16713;52.916;12.834;2023-11-19T12:56:18;99776.44;;;10.98;80.16
29825;BME280;16713;52.916;12.834;2023-11-19T12:58:45;99773.34;;;11.03;79.89
29825;BME280;16713;52.916;12.834;2023-11-19T13:01:19;99780.38;;;11.04;79.80
29825;BME280;16713;52.916;12.834;2023-11-19T13:03:47;99774.91;;;11.04;79.78
29825;BME280;16713;52.916;12.834;2023-11-19T13:06:17;99781.53;;;10.99;79.91
29825;BME280;16713;52.916;12.834;2023-11-19T13:08:49;99778.41;;;10.97;80.13
29825;BME280;16713;52.916;12.834;2023-11-19T13:11:35;99777.66;;;11.04;80.03
29825;BME280;16713;52.916;12.834;2023-11-19T13:14:07;99778.03;;;11.02;80.14
29825;BME280;16713;52.916;12.834;2023-11-19T13:16:37;99778.47;;;11.08;80.00
29825;BME280;16713;52.916;12.834;2023-11-19T13:19:04;99775.34;;;11.09;79.83
29825;BME280;16713;52.916;12.834;2023-11-19T13:21:31;99780.38;;;11.00;80.25
29825;BME280;16713;52.916;12.834;2023-11-19T13:23:58;99791.00;;;11.05;79.81